Аэропорт: Платов. Ростов-на-Дону

ICAO: URRP

METAR:
2019-11-21 01:30:00
URRP 210130Z 08012MPS 9999 BKN044 M05/M10 Q1037 R05/CLRD70 NOSIG RMK QFE773/1031
METAR:
2019-11-20 22:56:00
TAF URRP 202256Z 2100/2124 08010G16MPS 9999 BKN011 TEMPO 2100/2109 10011G18MPS 3100 -SN BR OVC005 TEMPO 2109/2118 09013G19MPS